Time;durP1;ratioP1;P1;durP2;ratioP2;P2;SDS_P1;SDS_P2;PMS_P1;PMS_P2;Temp;Humidity;BMP_temperature;BMP_pressure;BME280_temperature;BME280_humidity;BME280_pressure;Samples;Min_cycle;Max_cycle;Signal;HPM_P1;HPM_P2
2023/07/09 00:01:57;;;;;;;6.72;3.40;;;23.80;98.50;;;;;;5074750;28;20111;-78
2023/07/09 00:04:23;;;;;;;7.70;2.83;;;23.80;98.60;;;;;;5075133;28;20052;-78
2023/07/09 00:06:49;;;;;;;8.38;3.40;;;23.80;98.70;;;;;;5074701;28;20545;-78
2023/07/09 00:09:20;;;;;;;9.18;3.80;;;23.80;98.60;;;;;;5074906;28;20029;-79
2023/07/09 00:11:45;;;;;;;7.80;3.13;;;23.80;98.70;;;;;;5074245;28;20358;-79
2023/07/09 00:14:14;;;;;;;8.95;3.95;;;23.90;98.80;;;;;;5074752;28;20028;-78
2023/07/09 00:16:41;;;;;;;6.28;3.25;;;23.80;99.10;;;;;;5074109;28;20021;-80
2023/07/09 00:19:16;;;;;;;8.77;3.28;;;23.70;99.50;;;;;;5074839;28;20029;-79
2023/07/09 00:21:45;;;;;;;6.50;3.75;;;23.60;99.90;;;;;;5075064;28;20473;-79
2023/07/09 00:24:12;;;;;;;7.53;3.53;;;23.60;99.90;;;;;;5074908;28;20086;-78
2023/07/09 00:26:38;;;;;;;7.72;3.92;;;23.50;99.90;;;;;;5074283;28;20098;-80
2023/07/09 00:29:04;;;;;;;6.10;3.38;;;23.50;99.90;;;;;;5074713;28;20035;-78
2023/07/09 00:31:30;;;;;;;7.80;3.22;;;23.60;99.90;;;;;;5074322;28;20025;-79
2023/07/09 00:33:55;;;;;;;7.88;3.45;;;23.60;99.90;;;;;;5074078;28;20104;-78
2023/07/09 00:36:31;;;;;;;7.32;3.50;;;23.60;99.90;;;;;;5074744;28;20021;-79
2023/07/09 00:39:00;;;;;;;7.82;3.40;;;23.50;99.90;;;;;;5074202;28;20032;-79
2023/07/09 00:41:28;;;;;;;5.93;3.30;;;23.50;99.90;;;;;;5074541;28;20024;-79
2023/07/09 00:43:53;;;;;;;6.45;3.22;;;23.50;99.90;;;;;;5074899;28;20017;-79
2023/07/09 00:46:19;;;;;;;6.68;3.78;;;23.50;99.90;;;;;;5074375;28;20027;-78
2023/07/09 00:49:00;;;;;;;6.20;3.20;;;23.50;99.90;;;;;;5073371;28;20376;-79
2023/07/09 00:51:27;;;;;;;5.90;3.45;;;23.40;99.90;;;;;;5074017;28;20090;-79
2023/07/09 00:53:58;;;;;;;5.20;3.20;;;23.40;99.90;;;;;;5074416;28;20028;-79
2023/07/09 00:56:40;;;;;;;5.18;3.15;;;23.40;99.90;;;;;;5075226;28;20027;-79
2023/07/09 00:59:11;;;;;;;6.03;2.97;;;23.40;99.90;;;;;;5074085;28;20126;-79
2023/07/09 01:01:40;;;;;;;7.88;3.70;;;23.40;99.90;;;;;;5073295;28;20070;-78
2023/07/09 01:04:07;;;;;;;7.70;3.50;;;23.40;99.90;;;;;;5072528;28;20369;-78
2023/07/09 01:06:41;;;;;;;7.20;3.47;;;23.40;99.90;;;;;;5074977;28;20016;-78
2023/07/09 01:09:07;;;;;;;6.00;3.50;;;23.40;99.90;;;;;;5073972;28;20036;-79
2023/07/09 01:11:33;;;;;;;4.35;2.95;;;23.20;99.90;;;;;;5073789;28;20026;-78
2023/07/09 01:14:02;;;;;;;6.40;3.80;;;23.20;99.90;;;;;;5072854;28;20453;-78
2023/07/09 01:16:31;;;;;;;7.70;3.53;;;23.20;99.90;;;;;;5073497;28;20069;-78
2023/07/09 01:18:57;;;;;;;8.02;3.42;;;23.10;99.90;;;;;;5072920;28;20621;-78
2023/07/09 01:21:23;;;;;;;5.75;3.50;;;23.00;99.90;;;;;;5074225;28;20020;-77
2023/07/09 01:23:50;;;;;;;8.30;3.40;;;23.00;99.90;;;;;;5073631;28;20017;-78
2023/07/09 01:26:19;;;;;;;6.47;3.50;;;23.00;99.90;;;;;;5074727;28;20039;-78
2023/07/09 01:28:45;;;;;;;9.68;3.50;;;23.00;99.90;;;;;;5072799;28;20044;-78
2023/07/09 01:31:14;;;;;;;9.07;3.85;;;22.90;99.90;;;;;;5073645;28;20024;-79
2023/07/09 01:33:41;;;;;;;7.82;3.50;;;23.00;99.90;;;;;;5072486;28;20468;-78
2023/07/09 01:36:09;;;;;;;10.43;3.45;;;23.00;99.90;;;;;;5074282;28;20013;-78
2023/07/09 01:38:35;;;;;;;8.98;3.55;;;23.00;99.90;;;;;;5073272;28;20036;-78
2023/07/09 01:41:01;;;;;;;5.85;3.22;;;23.00;99.90;;;;;;5072469;28;20027;-78
2023/07/09 01:43:27;;;;;;;8.43;3.97;;;23.00;99.90;;;;;;5073070;28;20025;-78
2023/07/09 01:45:57;;;;;;;8.45;4.03;;;23.00;99.90;;;;;;5072233;28;20037;-78
2023/07/09 01:48:24;;;;;;;7.30;3.20;;;22.90;99.90;;;;;;5072974;28;20039;-78
2023/07/09 01:50:50;;;;;;;8.20;3.97;;;22.90;99.90;;;;;;5072261;28;20085;-78
2023/07/09 01:53:19;;;;;;;7.85;3.80;;;22.90;99.90;;;;;;5072741;28;20017;-78
2023/07/09 01:55:44;;;;;;;6.05;3.50;;;22.80;99.90;;;;;;5073503;28;20059;-78
2023/07/09 01:58:10;;;;;;;6.30;3.55;;;22.80;99.90;;;;;;5072880;28;20036;-78
2023/07/09 02:00:37;;;;;;;7.70;3.42;;;22.70;99.90;;;;;;5072721;28;20513;-79
2023/07/09 02:03:04;;;;;;;6.63;3.35;;;22.60;99.90;;;;;;5072074;28;20355;-79
2023/07/09 02:05:35;;;;;;;7.28;3.90;;;22.70;99.90;;;;;;5073013;28;20078;-79
2023/07/09 02:08:00;;;;;;;8.20;3.22;;;22.60;99.90;;;;;;5073043;28;20233;-79
2023/07/09 02:10:26;;;;;;;7.57;3.63;;;22.60;99.90;;;;;;5072857;28;20522;-79
2023/07/09 02:12:52;;;;;;;5.03;3.30;;;22.60;99.90;;;;;;5072092;28;20074;-79
2023/07/09 02:15:17;;;;;;;9.48;3.30;;;22.60;99.90;;;;;;5072728;28;20025;-79
2023/07/09 02:17:43;;;;;;;6.80;3.13;;;22.60;99.90;;;;;;5072762;28;20024;-79
2023/07/09 02:20:10;;;;;;;14.00;3.60;;;22.60;99.90;;;;;;5072705;28;20112;-79
2023/07/09 02:22:37;;;;;;;5.80;3.20;;;22.60;99.90;;;;;;5072751;28;20115;-79
2023/07/09 02:25:05;;;;;;;5.30;3.25;;;22.60;99.90;;;;;;5071881;28;20545;-79
2023/07/09 02:27:31;;;;;;;5.00;3.40;;;22.50;99.90;;;;;;5072600;28;20033;-79
2023/07/09 02:29:58;;;;;;;6.75;3.50;;;22.50;99.90;;;;;;5072213;28;20040;-79
2023/07/09 02:32:27;;;;;;;7.95;3.67;;;22.60;99.90;;;;;;5072631;28;20020;-79
2023/07/09 02:34:53;;;;;;;11.98;4.15;;;22.60;99.90;;;;;;5072282;28;20074;-79
2023/07/09 02:37:21;;;;;;;5.85;3.33;;;22.60;99.90;;;;;;5072688;28;20024;-79
2023/07/09 02:39:47;;;;;;;9.25;3.75;;;22.60;99.90;;;;;;5073025;28;20346;-79
2023/07/09 02:42:15;;;;;;;5.35;3.35;;;22.50;99.90;;;;;;5072199;28;20450;-79
2023/07/09 02:44:42;;;;;;;7.63;3.70;;;22.40;99.90;;;;;;5072204;28;20111;-79
2023/07/09 02:47:08;;;;;;;8.48;3.42;;;22.40;99.90;;;;;;5071600;28;20442;-79
2023/07/09 02:49:34;;;;;;;7.68;3.20;;;22.40;99.90;;;;;;5073559;28;20082;-79
2023/07/09 02:52:00;;;;;;;6.97;3.33;;;22.30;99.90;;;;;;5071704;28;20025;-79
2023/07/09 02:54:26;;;;;;;6.45;3.58;;;22.30;99.90;;;;;;5073135;28;20417;-78
2023/07/09 02:56:51;;;;;;;5.95;3.67;;;22.30;99.90;;;;;;5071183;28;20040;-78
2023/07/09 02:59:17;;;;;;;7.03;3.80;;;22.10;99.90;;;;;;5071742;28;20063;-78
2023/07/09 03:01:43;;;;;;;7.78;3.70;;;22.20;99.90;;;;;;5071810;28;20042;-77
2023/07/09 03:04:09;;;;;;;8.70;3.63;;;22.00;99.90;;;;;;5071440;28;20108;-78
2023/07/09 03:06:36;;;;;;;8.07;3.85;;;22.10;99.90;;;;;;5071772;28;20490;-78
2023/07/09 03:09:03;;;;;;;7.82;3.70;;;22.10;99.90;;;;;;5071075;28;20028;-77
2023/07/09 03:11:31;;;;;;;5.53;3.65;;;22.00;99.90;;;;;;5071467;28;20422;-77
2023/07/09 03:13:58;;;;;;;5.97;3.58;;;21.90;99.90;;;;;;5072196;28;20028;-78
2023/07/09 03:16:25;;;;;;;7.63;3.65;;;21.90;99.90;;;;;;5071559;28;20037;-80
2023/07/09 03:18:51;;;;;;;5.63;3.25;;;21.90;99.90;;;;;;5070907;28;20025;-79
2023/07/09 03:21:17;;;;;;;8.90;3.55;;;22.00;99.90;;;;;;5072419;28;20031;-79
2023/07/09 03:23:42;;;;;;;6.80;3.63;;;22.00;99.90;;;;;;5071891;28;20028;-79
2023/07/09 03:26:08;;;;;;;7.65;3.85;;;22.00;99.90;;;;;;5071540;28;20060;-79
2023/07/09 03:28:33;;;;;;;5.22;3.40;;;21.90;99.90;;;;;;5076881;28;20374;-79
2023/07/09 03:30:59;;;;;;;8.50;3.85;;;21.90;99.90;;;;;;5076739;28;20100;-78
2023/07/09 03:33:25;;;;;;;8.80;4.13;;;21.90;99.90;;;;;;5076098;28;20020;-79
2023/07/09 03:35:51;;;;;;;8.40;3.63;;;21.90;99.90;;;;;;5076694;28;20392;-76
2023/07/09 03:38:18;;;;;;;10.68;3.25;;;21.80;99.90;;;;;;5076176;28;20047;-79
2023/07/09 03:40:44;;;;;;;5.90;3.88;;;21.80;99.90;;;;;;5076233;28;20088;-79
2023/07/09 03:43:10;;;;;;;5.45;3.33;;;21.80;99.90;;;;;;5075545;28;20497;-79
2023/07/09 03:45:37;;;;;;;6.43;3.22;;;21.80;99.90;;;;;;5075443;28;20046;-79
2023/07/09 03:48:04;;;;;;;8.07;3.60;;;21.80;99.90;;;;;;5076056;28;20167;-79
2023/07/09 03:50:30;;;;;;;7.97;3.63;;;21.80;99.90;;;;;;5077004;28;20051;-79
2023/07/09 03:52:55;;;;;;;6.90;3.50;;;21.70;99.90;;;;;;5076411;28;20063;-79
2023/07/09 03:55:21;;;;;;;6.15;3.50;;;21.80;99.90;;;;;;5075691;28;20458;-79
2023/07/09 03:57:47;;;;;;;5.63;3.70;;;21.80;99.90;;;;;;5075274;28;20028;-79
2023/07/09 04:00:14;;;;;;;6.60;3.58;;;21.80;99.90;;;;;;5075112;28;20362;-79
2023/07/09 04:02:40;;;;;;;6.05;3.53;;;21.80;99.90;;;;;;5075498;28;20016;-79
2023/07/09 04:05:08;;;;;;;6.18;3.80;;;21.80;99.90;;;;;;5075073;28;20027;-79
2023/07/09 04:07:34;;;;;;;7.18;3.78;;;21.80;99.90;;;;;;5076634;28;20108;-79
2023/07/09 04:09:59;;;;;;;6.70;3.65;;;21.80;99.90;;;;;;5074778;28;20063;-79
2023/07/09 04:12:25;;;;;;;7.15;3.63;;;21.90;99.90;;;;;;5075566;28;20024;-79
2023/07/09 04:14:51;;;;;;;5.97;3.67;;;21.80;99.90;;;;;;5074439;28;20511;-79
2023/07/09 04:17:16;;;;;;;5.10;3.63;;;21.80;99.90;;;;;;5075630;28;20071;-79
2023/07/09 04:19:42;;;;;;;5.72;3.80;;;21.80;99.90;;;;;;5076065;28;20454;-79
2023/07/09 04:22:10;;;;;;;6.63;3.92;;;21.70;99.90;;;;;;5076027;28;20029;-79
2023/07/09 04:24:36;;;;;;;6.88;3.53;;;21.80;99.90;;;;;;5076131;28;20066;-79
2023/07/09 04:27:02;;;;;;;7.20;3.40;;;21.80;99.90;;;;;;5074421;28;20024;-79
2023/07/09 04:29:29;;;;;;;6.82;3.88;;;21.80;99.90;;;;;;5075196;28;20021;-79
2023/07/09 04:31:54;;;;;;;11.27;4.13;;;21.70;99.90;;;;;;5074607;28;20048;-78
2023/07/09 04:34:20;;;;;;;6.88;3.38;;;21.70;99.90;;;;;;5074728;28;20056;-79
2023/07/09 04:36:46;;;;;;;6.85;3.75;;;21.70;99.90;;;;;;5074383;28;20017;-78
2023/07/09 04:39:11;;;;;;;6.95;3.85;;;21.70;99.90;;;;;;5074187;28;20082;-78
2023/07/09 04:41:37;;;;;;;5.97;3.75;;;21.70;99.90;;;;;;5074696;28;20020;-79
2023/07/09 04:44:03;;;;;;;6.95;3.60;;;21.80;99.90;;;;;;5075230;28;20044;-79
2023/07/09 04:46:28;;;;;;;4.78;3.38;;;21.70;99.90;;;;;;5075613;28;20024;-78
2023/07/09 04:48:55;;;;;;;6.82;4.00;;;21.70;99.90;;;;;;5074031;28;20491;-79
2023/07/09 04:51:21;;;;;;;5.75;3.22;;;21.60;99.90;;;;;;5074351;28;20052;-78
2023/07/09 04:53:46;;;;;;;6.63;4.00;;;21.70;99.90;;;;;;5074171;28;20369;-78
2023/07/09 04:56:12;;;;;;;8.43;3.67;;;21.70;99.90;;;;;;5074909;28;20093;-78
2023/07/09 04:58:38;;;;;;;6.63;3.75;;;21.70;99.90;;;;;;5074239;28;20369;-79
2023/07/09 05:01:04;;;;;;;6.53;3.60;;;21.70;99.90;;;;;;5074863;28;20032;-78
2023/07/09 05:03:29;;;;;;;5.88;3.30;;;21.70;99.90;;;;;;5075327;28;20398;-79
2023/07/09 05:05:55;;;;;;;6.55;3.50;;;21.70;99.90;;;;;;5073750;28;20058;-78
2023/07/09 05:08:21;;;;;;;5.72;3.17;;;21.80;99.90;;;;;;5074140;28;20082;-78
2023/07/09 05:10:50;;;;;;;6.63;3.10;;;21.70;99.90;;;;;;5074038;28;20031;-78
2023/07/09 05:13:17;;;;;;;4.43;3.25;;;21.80;99.90;;;;;;5074893;28;20024;-79
2023/07/09 05:15:44;;;;;;;6.38;3.13;;;21.80;99.90;;;;;;5075112;28;20024;-79
2023/07/09 05:18:12;;;;;;;7.18;3.40;;;21.80;99.90;;;;;;5074517;28;20020;-79
2023/07/09 05:20:38;;;;;;;7.57;3.50;;;21.80;99.90;;;;;;5073870;28;20107;-79
2023/07/09 05:23:03;;;;;;;5.47;3.20;;;21.80;99.90;;;;;;5074503;28;20059;-79
2023/07/09 05:25:29;;;;;;;7.95;3.28;;;21.80;99.90;;;;;;5073403;28;20423;-79
2023/07/09 05:27:55;;;;;;;5.80;3.45;;;21.90;99.90;;;;;;5072891;28;20089;-78
2023/07/09 05:30:21;;;;;;;6.75;3.45;;;21.90;99.90;;;;;;5073762;28;20024;-79
2023/07/09 05:32:47;;;;;;;7.72;3.60;;;22.00;99.90;;;;;;5073461;28;20020;-79
2023/07/09 05:35:13;;;;;;;5.88;3.45;;;22.00;99.90;;;;;;5073198;28;20109;-79
2023/07/09 05:37:39;;;;;;;6.03;3.40;;;22.10;99.90;;;;;;5073655;28;20415;-78
2023/07/09 05:40:06;;;;;;;6.65;3.33;;;22.20;99.90;;;;;;5074184;28;20103;-78
2023/07/09 05:42:32;;;;;;;7.20;3.90;;;22.20;99.90;;;;;;5073554;28;20470;-78
2023/07/09 05:44:58;;;;;;;7.32;4.22;;;22.30;99.90;;;;;;5072310;28;20040;-79
2023/07/09 05:47:24;;;;;;;7.03;4.35;;;22.30;99.90;;;;;;5072889;28;20032;-79
2023/07/09 05:49:50;;;;;;;9.32;4.50;;;22.40;99.90;;;;;;5073843;28;20027;-79
2023/07/09 05:52:17;;;;;;;9.35;4.35;;;22.50;99.90;;;;;;5073888;28;20025;-79
2023/07/09 05:54:43;;;;;;;8.27;4.30;;;22.50;99.90;;;;;;5073176;28;20027;-78
2023/07/09 05:57:10;;;;;;;7.00;4.00;;;22.50;99.90;;;;;;5072430;28;20027;-78
2023/07/09 05:59:35;;;;;;;8.32;4.00;;;22.60;99.90;;;;;;5073207;28;20025;-79
2023/07/09 06:02:02;;;;;;;8.32;4.05;;;22.70;99.90;;;;;;5073982;28;20078;-79
2023/07/09 06:04:30;;;;;;;8.52;4.60;;;22.70;99.90;;;;;;5072868;28;20027;-79
2023/07/09 06:06:56;;;;;;;7.22;3.70;;;22.80;99.90;;;;;;5072471;28;20047;-79
2023/07/09 06:09:22;;;;;;;7.65;4.53;;;22.80;99.90;;;;;;5072650;28;20415;-79
2023/07/09 06:11:48;;;;;;;10.25;4.70;;;22.90;99.90;;;;;;5072761;28;20055;-79
2023/07/09 06:14:14;;;;;;;11.95;4.07;;;22.90;99.90;;;;;;5073056;28;20462;-79
2023/07/09 06:16:39;;;;;;;7.75;4.03;;;22.90;99.90;;;;;;5073874;28;20484;-79
2023/07/09 06:19:05;;;;;;;7.75;3.60;;;23.00;99.90;;;;;;5071948;28;20074;-78
2023/07/09 06:21:30;;;;;;;10.57;3.80;;;23.00;99.90;;;;;;5072647;28;20044;-79
2023/07/09 06:23:56;;;;;;;6.18;3.53;;;23.00;99.90;;;;;;5072575;28;20095;-79
2023/07/09 06:26:22;;;;;;;9.10;4.28;;;23.10;99.90;;;;;;5073114;28;20067;-79
2023/07/09 06:28:47;;;;;;;6.25;3.85;;;23.10;99.90;;;;;;5072570;28;20043;-79
2023/07/09 06:31:13;;;;;;;7.10;3.75;;;23.20;99.90;;;;;;5071856;28;20023;-79
2023/07/09 06:33:38;;;;;;;6.40;3.42;;;23.20;99.90;;;;;;5073755;28;20027;-79
2023/07/09 06:36:04;;;;;;;6.75;3.45;;;23.30;99.90;;;;;;5071804;28;20032;-79
2023/07/09 06:38:30;;;;;;;9.18;4.03;;;23.30;99.90;;;;;;5072303;28;20051;-79
2023/07/09 06:40:57;;;;;;;9.65;3.97;;;23.30;99.90;;;;;;5072139;28;20461;-79
2023/07/09 06:43:22;;;;;;;7.72;3.33;;;23.40;99.90;;;;;;5073351;28;20527;-79
2023/07/09 06:45:56;;;;;;;8.55;3.75;;;23.50;99.90;;;;;;5072110;28;20040;-79
2023/07/09 06:48:23;;;;;;;6.82;4.00;;;23.50;99.90;;;;;;5071779;28;20059;-79
2023/07/09 06:50:49;;;;;;;6.78;3.53;;;23.60;99.90;;;;;;5072378;28;20461;-79
2023/07/09 06:53:15;;;;;;;5.43;3.50;;;23.60;99.90;;;;;;5071760;28;20093;-79
2023/07/09 06:55:41;;;;;;;5.72;3.65;;;23.70;99.90;;;;;;5072166;28;20404;-79
2023/07/09 06:58:07;;;;;;;7.40;3.40;;;23.80;99.90;;;;;;5071459;28;20028;-79
2023/07/09 07:00:37;;;;;;;6.32;3.33;;;23.80;99.90;;;;;;5069030;28;20036;-78
2023/07/09 07:03:03;;;;;;;5.90;3.25;;;23.80;99.90;;;;;;5064831;28;20029;-78
2023/07/09 07:05:29;;;;;;;5.18;3.15;;;23.80;99.90;;;;;;5071379;28;20107;-78
2023/07/09 07:07:54;;;;;;;9.63;4.03;;;23.90;99.90;;;;;;5071437;28;20119;-80
2023/07/09 07:10:20;;;;;;;6.30;3.20;;;23.90;99.90;;;;;;5071975;28;20056;-78
2023/07/09 07:12:47;;;;;;;7.53;3.55;;;24.00;99.90;;;;;;5071492;28;20342;-78
2023/07/09 07:15:15;;;;;;;12.20;3.50;;;24.00;99.90;;;;;;5071674;28;20070;-78
2023/07/09 07:17:42;;;;;;;7.68;3.72;;;24.10;99.90;;;;;;5072117;28;20063;-79
2023/07/09 07:20:09;;;;;;;8.95;3.45;;;24.10;99.90;;;;;;5070516;28;20021;-78
2023/07/09 07:22:34;;;;;;;5.93;3.53;;;24.10;99.90;;;;;;5070076;28;20092;-79
2023/07/09 07:25:00;;;;;;;8.82;3.58;;;24.20;99.90;;;;;;5071170;28;20458;-79
2023/07/09 07:27:25;;;;;;;9.23;5.43;;;24.20;99.90;;;;;;5071463;28;20040;-79
2023/07/09 07:29:52;;;;;;;10.60;5.22;;;24.30;99.90;;;;;;5071478;28;20020;-79
2023/07/09 07:32:17;;;;;;;5.90;3.92;;;24.30;99.90;;;;;;5070948;28;20020;-78
2023/07/09 07:34:43;;;;;;;6.47;3.88;;;24.40;99.90;;;;;;5071276;28;20046;-79
2023/07/09 07:37:08;;;;;;;5.72;3.42;;;24.50;99.90;;;;;;5071325;28;20028;-79
2023/07/09 07:39:34;;;;;;;5.65;3.63;;;24.50;99.90;;;;;;5071814;28;20025;-78
2023/07/09 07:42:00;;;;;;;8.68;3.97;;;24.50;99.90;;;;;;5071413;28;20017;-78
2023/07/09 07:44:25;;;;;;;6.97;3.80;;;24.60;99.90;;;;;;5070831;28;20084;-78
2023/07/09 07:46:51;;;;;;;7.55;4.00;;;24.60;99.90;;;;;;5072432;28;20017;-79
2023/07/09 07:49:16;;;;;;;6.10;3.70;;;24.60;99.90;;;;;;5070562;28;20473;-79
2023/07/09 07:51:42;;;;;;;7.10;3.95;;;24.70;99.90;;;;;;5071130;28;20048;-79
2023/07/09 07:54:09;;;;;;;10.05;3.80;;;24.70;99.90;;;;;;5070626;28;20055;-79
2023/07/09 07:56:36;;;;;;;6.75;3.55;;;24.80;99.90;;;;;;5070685;28;20212;-79
2023/07/09 07:59:02;;;;;;;8.40;4.00;;;24.90;99.90;;;;;;5070748;28;20029;-79
2023/07/09 08:01:28;;;;;;;7.30;3.50;;;24.90;99.90;;;;;;5067976;28;20017;-79
2023/07/09 08:03:54;;;;;;;9.68;4.15;;;24.90;99.90;;;;;;5071930;28;20029;-78
2023/07/09 08:06:20;;;;;;;8.50;4.05;;;24.90;99.90;;;;;;5069442;28;20024;-79
2023/07/09 08:08:46;;;;;;;8.25;3.85;;;25.00;99.90;;;;;;5070521;28;20400;-79
2023/07/09 08:11:11;;;;;;;7.93;3.50;;;25.00;99.90;;;;;;5069590;28;20046;-79
2023/07/09 08:13:38;;;;;;;5.55;3.45;;;25.00;99.90;;;;;;5072744;28;20461;-80
2023/07/09 08:16:05;;;;;;;7.15;3.88;;;25.10;99.90;;;;;;5075112;28;20024;-80
2023/07/09 08:18:31;;;;;;;6.32;3.83;;;25.10;99.90;;;;;;5075010;28;20028;-79
2023/07/09 08:20:58;;;;;;;5.25;3.30;;;25.20;99.90;;;;;;5074604;28;20047;-79
2023/07/09 08:23:23;;;;;;;6.70;3.85;;;25.20;99.90;;;;;;5075119;28;20219;-79
2023/07/09 08:26:00;;;;;;;4.50;3.25;;;25.30;99.90;;;;;;5075812;28;20461;-79
2023/07/09 08:28:26;;;;;;;7.85;3.05;;;25.40;99.90;;;;;;5074205;28;20101;-79
2023/07/09 08:30:53;;;;;;;7.53;3.45;;;25.40;99.90;;;;;;5074033;28;20055;-79
2023/07/09 08:33:18;;;;;;;5.32;3.20;;;25.40;99.90;;;;;;5074101;28;20021;-78
2023/07/09 08:35:44;;;;;;;5.30;2.92;;;25.40;99.90;;;;;;5075896;28;20357;-79
2023/07/09 08:38:10;;;;;;;4.82;2.97;;;25.40;99.90;;;;;;5074381;28;20174;-78
2023/07/09 08:41:00;;;;;;;6.47;3.60;;;25.40;99.70;;;;;;5075518;28;20177;-78
2023/07/09 08:43:50;;;;;;;5.57;3.00;;;25.50;99.90;;;;;;5059586;28;20568;-81
2023/07/09 08:46:32;;;;;;;5.95;3.28;;;25.70;99.50;;;;;;5071349;28;20032;-79
2023/07/09 08:49:01;;;;;;;5.78;3.08;;;25.80;99.30;;;;;;5074507;28;20027;-78
2023/07/09 08:51:38;;;;;;;5.65;3.20;;;25.90;98.70;;;;;;5073191;28;20017;-80
2023/07/09 08:54:09;;;;;;;7.85;3.70;;;26.00;98.40;;;;;;5056498;28;20020;-81
2023/07/09 08:56:34;;;;;;;5.32;2.85;;;26.00;98.50;;;;;;5069175;28;20024;-80
2023/07/09 08:59:02;;;;;;;6.93;3.10;;;26.10;98.20;;;;;;5074928;28;20032;-81
2023/07/09 09:01:34;;;;;;;5.60;2.97;;;26.10;97.90;;;;;;5074524;28;20146;-83
2023/07/09 09:04:25;;;;;;;11.20;2.88;;;26.20;97.70;;;;;;5073730;28;20350;-79
2023/07/09 09:07:14;;;;;;;5.93;3.00;;;26.10;97.70;;;;;;5072532;28;20037;-81
2023/07/09 09:09:49;;;;;;;7.10;3.42;;;26.20;97.70;;;;;;5073959;28;20036;-78
2023/07/09 09:12:20;;;;;;;8.55;3.25;;;26.20;97.50;;;;;;5072931;28;20433;-79
2023/07/09 09:14:51;;;;;;;;;;;26.20;98.30;;;;;;5073933;28;20028;-78
2023/07/09 09:17:19;;;;;;;4.43;3.00;;;26.40;98.10;;;;;;5074729;28;19900;-79
2023/07/09 09:20:01;;;;;;;7.65;3.20;;;26.50;98.00;;;;;;5074534;28;20058;-78
2023/07/09 09:22:40;;;;;;;6.15;2.90;;;26.80;97.50;;;;;;5070765;28;20111;-79
2023/07/09 09:25:15;;;;;;;8.00;3.70;;;26.90;97.60;;;;;;5072212;28;20465;-78
2023/07/09 09:27:41;;;;;;;6.80;3.22;;;26.80;97.60;;;;;;5073167;28;20127;-78
2023/07/09 09:30:20;;;;;;;8.07;3.00;;;26.90;97.20;;;;;;5073231;28;20020;-79
2023/07/09 09:32:55;;;;;;;5.68;3.13;;;26.80;97.00;;;;;;5066561;28;20024;-78
2023/07/09 09:35:33;;;;;;;5.95;3.08;;;27.00;97.00;;;;;;5074396;28;20021;-79
2023/07/09 09:37:59;;;;;;;6.32;3.55;;;27.10;97.00;;;;;;5073212;28;20078;-78
2023/07/09 09:40:28;;;;;;;9.02;3.50;;;27.10;96.80;;;;;;5071819;28;20017;-78
2023/07/09 09:42:56;;;;;;;8.18;3.05;;;27.10;96.70;;;;;;5072972;28;20029;-79
2023/07/09 09:45:34;;;;;;;8.50;3.38;;;27.10;97.00;;;;;;5072711;28;20068;-79
2023/07/09 09:48:09;;;;;;;6.03;2.97;;;27.20;97.00;;;;;;5072650;28;20052;-79
2023/07/09 09:50:35;;;;;;;6.57;3.13;;;27.20;96.30;;;;;;5074107;28;20021;-78
2023/07/09 09:53:01;;;;;;;5.75;2.95;;;27.40;96.10;;;;;;5073809;28;20036;-77
2023/07/09 09:55:32;;;;;;;7.35;3.22;;;27.40;96.00;;;;;;5073191;28;20366;-78
2023/07/09 09:57:58;;;;;;;5.90;2.95;;;27.50;96.80;;;;;;5074551;28;20044;-80
2023/07/09 10:00:29;;;;;;;5.43;2.97;;;27.60;96.70;;;;;;5073886;28;20175;-78
2023/07/09 10:03:05;;;;;;;5.32;3.15;;;27.70;96.50;;;;;;5075713;28;20091;-79
2023/07/09 10:06:18;;;;;;;7.20;3.10;;;27.70;96.00;;;;;;5075346;28;20028;-82
2023/07/09 10:08:59;;;;;;;6.45;3.20;;;27.80;95.80;;;;;;5046739;28;20041;-81
2023/07/09 10:11:59;;;;;;;5.28;3.08;;;27.80;95.50;;;;;;5071247;28;20028;-80
2023/07/09 10:14:46;;;;;;;6.88;3.55;;;27.80;95.60;;;;;;5068908;28;20028;-80
2023/07/09 10:17:23;;;;;;;10.02;3.47;;;28.00;96.00;;;;;;5072595;28;20086;-80
2023/07/09 10:20:23;;;;;;;6.63;3.22;;;28.00;95.20;;;;;;5074753;28;20074;-79
2023/07/09 10:23:09;;;;;;;6.88;3.58;;;28.20;95.10;;;;;;5053352;28;20041;-79
2023/07/09 10:26:07;;;;;;;6.28;3.17;;;28.30;94.70;;;;;;5073304;28;20037;-79
2023/07/09 10:28:57;;;;;;;5.57;3.25;;;28.20;94.50;;;;;;5071044;28;20029;-80
2023/07/09 10:31:48;;;;;;;3.78;2.70;;;28.20;94.30;;;;;;5073807;28;20034;-79
2023/07/09 10:34:26;;;;;;;3.45;2.83;;;28.30;94.10;;;;;;5054492;28;20063;-79
2023/07/09 10:37:19;;;;;;;6.50;3.05;;;28.40;94.00;;;;;;5064457;28;20020;-79
2023/07/09 10:39:48;;;;;;;5.63;2.60;;;28.50;94.00;;;;;;5072355;28;20028;-78
2023/07/09 10:42:43;;;;;;;9.30;3.20;;;28.60;93.40;;;;;;5071512;28;20017;-78
2023/07/09 10:45:20;;;;;;;4.13;2.83;;;28.50;93.50;;;;;;5060991;28;20465;-77
2023/07/09 10:47:58;;;;;;;4.15;2.55;;;28.50;93.80;;;;;;5073267;28;20393;-77
2023/07/09 10:50:33;;;;;;;5.25;2.58;;;28.50;92.10;;;;;;5072167;28;20023;-78
2023/07/09 10:53:08;;;;;;;4.90;2.30;;;28.50;91.10;;;;;;5071033;28;20027;-77
2023/07/09 10:55:59;;;;;;;6.93;2.50;;;28.50;90.80;;;;;;5071286;28;20035;-78
2023/07/09 10:58:37;;;;;;;4.45;2.53;;;28.60;91.80;;;;;;5066217;28;20029;-77
2023/07/09 11:01:04;;;;;;;4.78;2.70;;;28.60;91.40;;;;;;5072163;28;20056;-80
2023/07/09 11:03:49;;;;;;;4.43;2.45;;;28.60;90.50;;;;;;5070805;28;20373;-79
2023/07/09 11:06:41;;;;;;;4.70;2.50;;;28.70;90.80;;;;;;5058487;28;20461;-80
2023/07/09 11:09:17;;;;;;;4.45;2.80;;;28.80;90.20;;;;;;5064118;28;20044;-79
2023/07/09 11:11:48;;;;;;;4.88;2.38;;;28.80;88.70;;;;;;5072583;28;20096;-81
2023/07/09 11:14:43;;;;;;;4.40;2.20;;;28.90;89.40;;;;;;5072373;28;20077;-80
2023/07/09 11:17:15;;;;;;;8.15;2.45;;;29.00;88.60;;;;;;5071599;28;20024;-79
2023/07/09 11:19:47;;;;;;;4.57;2.22;;;29.10;86.70;;;;;;5072564;28;20048;-80
2023/07/09 11:22:21;;;;;;;6.80;2.60;;;29.10;84.90;;;;;;5070997;28;20016;-79
2023/07/09 11:25:06;;;;;;;4.30;2.33;;;29.20;84.80;;;;;;5072267;28;20024;-78
2023/07/09 11:27:32;;;;;;;4.88;2.13;;;29.40;84.60;;;;;;5072278;28;20033;-78
2023/07/09 11:30:00;;;;;;;3.38;2.10;;;29.50;84.10;;;;;;5072916;28;20040;-79
2023/07/09 11:32:27;;;;;;;6.72;2.50;;;29.60;84.00;;;;;;5073485;28;20285;-81
2023/07/09 11:34:53;;;;;;;5.55;2.38;;;29.70;84.10;;;;;;5073438;28;20021;-79
2023/07/09 11:37:24;;;;;;;4.95;2.40;;;29.80;84.10;;;;;;5074641;28;20432;-80
2023/07/09 11:39:50;;;;;;;5.05;2.53;;;29.80;83.00;;;;;;5075468;28;20099;-80
2023/07/09 11:42:28;;;;;;;3.17;2.20;;;29.80;80.90;;;;;;5073287;28;20088;-79
2023/07/09 11:45:09;;;;;;;3.08;2.10;;;29.80;81.40;;;;;;5061422;28;20540;-80
2023/07/09 11:47:41;;;;;;;5.05;2.45;;;29.90;80.10;;;;;;5074341;28;20086;-82
2023/07/09 11:50:26;;;;;;;6.88;2.25;;;30.00;81.60;;;;;;5058927;28;20029;-80
2023/07/09 11:52:54;;;;;;;5.30;2.17;;;30.20;80.00;;;;;;5068157;28;20071;-79
2023/07/09 11:55:40;;;;;;;6.32;2.42;;;30.30;77.70;;;;;;5077307;28;20552;-80
2023/07/09 11:58:08;;;;;;;3.33;2.38;;;30.50;77.00;;;;;;5079323;28;20100;-80
2023/07/09 12:00:48;;;;;;;5.78;2.70;;;30.60;77.80;;;;;;5078820;28;20028;-81
2023/07/09 12:03:22;;;;;;;3.63;2.03;;;30.60;74.90;;;;;;5077251;28;20108;-78
2023/07/09 12:05:56;;;;;;;5.22;2.30;;;30.70;75.40;;;;;;5078847;28;20126;-81
2023/07/09 12:08:42;;;;;;;3.22;1.80;;;30.80;74.30;;;;;;5076793;28;20028;-79
2023/07/09 12:11:30;;;;;;;6.13;3.30;;;30.90;73.50;;;;;;5077366;28;20128;-78
2023/07/09 12:14:10;;;;;;;6.38;2.90;;;31.00;73.80;;;;;;5087704;28;20016;-80
2023/07/09 12:16:39;;;;;;;5.27;2.70;;;31.10;76.50;;;;;;5074062;28;20026;-80
2023/07/09 12:19:05;;;;;;;3.42;2.00;;;31.20;74.50;;;;;;5076045;28;20096;-78
2023/07/09 12:21:35;;;;;;;3.78;1.90;;;31.30;76.30;;;;;;5074326;28;20040;-80
2023/07/09 12:24:02;;;;;;;6.03;2.45;;;31.40;75.50;;;;;;5073871;28;20029;-78
2023/07/09 12:26:31;;;;;;;4.38;2.00;;;31.60;72.50;;;;;;5074538;28;20127;-79
2023/07/09 12:28:58;;;;;;;4.22;2.33;;;31.70;71.50;;;;;;5073567;28;20044;-78
2023/07/09 12:31:30;;;;;;;5.78;2.13;;;32.00;69.60;;;;;;5072738;28;20074;-77
2023/07/09 12:33:57;;;;;;;4.05;2.08;;;32.00;69.40;;;;;;5072578;28;20031;-77
2023/07/09 12:36:25;;;;;;;4.93;2.20;;;32.20;70.50;;;;;;5072924;28;20421;-77
2023/07/09 12:38:53;;;;;;;5.50;1.90;;;32.20;67.20;;;;;;5073289;28;20024;-77
2023/07/09 12:41:24;;;;;;;3.70;2.05;;;32.40;67.10;;;;;;5072825;28;20052;-77
2023/07/09 12:43:52;;;;;;;4.38;2.35;;;32.50;64.90;;;;;;5072726;28;20085;-77
2023/07/09 12:46:18;;;;;;;5.40;2.47;;;32.70;65.10;;;;;;5073377;28;20020;-77
2023/07/09 12:48:55;;;;;;;6.30;2.25;;;32.80;64.60;;;;;;5073966;28;20032;-76
2023/07/09 12:51:28;;;;;;;4.03;1.90;;;32.80;64.40;;;;;;5073020;28;20017;-79
2023/07/09 12:54:12;;;;;;;5.53;2.50;;;32.90;64.80;;;;;;5073910;28;20024;-80
2023/07/09 12:56:38;;;;;;;4.38;2.30;;;32.90;64.20;;;;;;5074082;28;20023;-83
2023/07/09 12:59:26;;;;;;;3.45;2.33;;;33.10;60.80;;;;;;5074409;28;20024;-79